Time;durP1;ratioP1;P1;durP2;ratioP2;P2;SDS_P1;SDS_P2;PMS_P1;PMS_P2;Temp;Humidity;BMP_temperature;BMP_pressure;BME280_temperature;BME280_humidity;BME280_pressure;Samples;Min_cycle;Max_cycle;Signal;HPM_P1;HPM_P2
2024/04/16 00:00:14;;;;;;;0.60;0.30;;;;;;;;;;5383982;26;20070;-57
2024/04/16 00:02:40;;;;;;;1.33;0.50;;;;;;;;;;5384155;26;19996;-55
2024/04/16 00:05:05;;;;;;;1.20;0.50;;;;;;;;;;5384185;26;20073;-57
2024/04/16 00:07:31;;;;;;;9.65;0.65;;;;;;;;;;5383911;26;19992;-57
2024/04/16 00:09:57;;;;;;;0.57;0.30;;;;;;;;;;5384399;26;19996;-56
2024/04/16 00:12:23;;;;;;;3.25;0.40;;;;;;;;;;5384051;26;19999;-57
2024/04/16 00:14:49;;;;;;;2.30;0.38;;;;;;;;;;5384411;26;19996;-57
2024/04/16 00:17:15;;;;;;;1.58;0.40;;;;;;;;;;5383948;26;19996;-58
2024/04/16 00:19:41;;;;;;;0.75;0.40;;;;;;;;;;5383931;26;20008;-55
2024/04/16 00:22:07;;;;;;;0.73;0.13;;;;;;;;;;5384201;26;19992;-57
2024/04/16 00:24:33;;;;;;;0.40;0.20;;;;;;;;;;5383905;26;20003;-57
2024/04/16 00:26:59;;;;;;;0.60;0.22;;;;;;;;;;5383915;26;19997;-54
2024/04/16 00:29:25;;;;;;;0.85;0.32;;;;;;;;;;5384961;26;20000;-57
2024/04/16 00:31:50;;;;;;;1.05;0.40;;;;;;;;;;5383752;26;20066;-57
2024/04/16 00:34:16;;;;;;;1.75;0.40;;;;;;;;;;5384101;26;19993;-55
2024/04/16 00:36:42;;;;;;;0.50;0.20;;;;;;;;;;5384077;26;20356;-55
2024/04/16 00:39:12;;;;;;;2.85;0.30;;;;;;;;;;5384048;26;20000;-57
2024/04/16 00:41:37;;;;;;;0.57;0.30;;;;;;;;;;5383902;26;20000;-56
2024/04/16 00:44:03;;;;;;;1.40;0.38;;;;;;;;;;5384583;26;19996;-57
2024/04/16 00:46:29;;;;;;;0.57;0.35;;;;;;;;;;5383585;26;20070;-56
2024/04/16 00:48:55;;;;;;;2.08;0.50;;;;;;;;;;5383830;26;20088;-57
2024/04/16 00:51:21;;;;;;;0.32;0.20;;;;;;;;;;5383474;26;19996;-57
2024/04/16 00:53:47;;;;;;;1.10;0.52;;;;;;;;;;5383715;26;19997;-57
2024/04/16 00:56:13;;;;;;;1.75;0.50;;;;;;;;;;5383518;26;20003;-56
2024/04/16 00:58:40;;;;;;;1.08;0.43;;;;;;;;;;5383787;26;19996;-57
2024/04/16 01:01:06;;;;;;;0.47;0.20;;;;;;;;;;5383765;26;20022;-57
2024/04/16 01:03:32;;;;;;;1.85;0.70;;;;;;;;;;5383294;26;20430;-54
2024/04/16 01:05:58;;;;;;;0.80;0.38;;;;;;;;;;5382827;26;19996;-55
2024/04/16 01:08:24;;;;;;;1.23;0.30;;;;;;;;;;5383238;26;19996;-57
2024/04/16 01:10:50;;;;;;;0.50;0.30;;;;;;;;;;5382938;26;20000;-57
2024/04/16 01:13:16;;;;;;;2.80;0.70;;;;;;;;;;5382881;26;20013;-55
2024/04/16 01:15:41;;;;;;;1.52;0.47;;;;;;;;;;5383217;26;19993;-55
2024/04/16 01:18:07;;;;;;;1.13;0.43;;;;;;;;;;5382900;26;20062;-57
2024/04/16 01:20:38;;;;;;;4.65;0.80;;;;;;;;;;5383200;26;20015;-57
2024/04/16 01:23:04;;;;;;;2.67;0.75;;;;;;;;;;5383056;26;20122;-56
2024/04/16 01:25:35;;;;;;;0.88;0.40;;;;;;;;;;5382727;26;20472;-55
2024/04/16 01:28:01;;;;;;;1.13;0.43;;;;;;;;;;5383242;26;20007;-56
2024/04/16 01:30:27;;;;;;;1.45;0.38;;;;;;;;;;5383105;26;20334;-57
2024/04/16 01:32:52;;;;;;;3.30;0.45;;;;;;;;;;5382122;26;20446;-57
2024/04/16 01:35:18;;;;;;;3.95;0.50;;;;;;;;;;5382576;26;20074;-57
2024/04/16 01:37:44;;;;;;;1.10;0.50;;;;;;;;;;5382788;26;20007;-57
2024/04/16 01:40:11;;;;;;;5.78;0.82;;;;;;;;;;5382826;26;19996;-56
2024/04/16 01:42:37;;;;;;;1.30;0.50;;;;;;;;;;5382575;26;20005;-54
2024/04/16 01:45:03;;;;;;;1.15;0.40;;;;;;;;;;5382461;26;20007;-57
2024/04/16 01:47:29;;;;;;;5.07;1.13;;;;;;;;;;5382316;26;20422;-55
2024/04/16 01:49:55;;;;;;;0.98;0.52;;;;;;;;;;5382300;26;19997;-57
2024/04/16 01:52:20;;;;;;;1.20;0.43;;;;;;;;;;5383121;26;19992;-57
2024/04/16 01:54:46;;;;;;;1.95;0.60;;;;;;;;;;5383724;26;20438;-56
2024/04/16 01:57:12;;;;;;;1.90;0.70;;;;;;;;;;5382942;26;20009;-54
2024/04/16 01:59:38;;;;;;;0.90;0.40;;;;;;;;;;5382387;26;20000;-57
2024/04/16 02:02:04;;;;;;;1.08;0.70;;;;;;;;;;5382144;26;19996;-56
2024/04/16 02:04:30;;;;;;;0.57;0.38;;;;;;;;;;5382159;26;19997;-57
2024/04/16 02:06:56;;;;;;;2.72;0.43;;;;;;;;;;5382153;26;19992;-56
2024/04/16 02:09:22;;;;;;;3.55;0.77;;;;;;;;;;5382297;26;19997;-55
2024/04/16 02:11:48;;;;;;;3.05;0.47;;;;;;;;;;5382493;26;20007;-57
2024/04/16 02:14:14;;;;;;;1.92;0.70;;;;;;;;;;5382309;26;20008;-56
2024/04/16 02:16:40;;;;;;;0.98;0.60;;;;;;;;;;5382461;26;20004;-54
2024/04/16 02:19:06;;;;;;;2.28;0.70;;;;;;;;;;5382658;26;20026;-55
2024/04/16 02:21:32;;;;;;;0.68;0.30;;;;;;;;;;5382123;26;20039;-57
2024/04/16 02:23:58;;;;;;;1.48;0.60;;;;;;;;;;5382140;26;20001;-55
2024/04/16 02:26:24;;;;;;;1.60;0.35;;;;;;;;;;5381991;26;20023;-54
2024/04/16 02:28:50;;;;;;;0.65;0.40;;;;;;;;;;5382309;26;20069;-57
2024/04/16 02:31:16;;;;;;;2.88;0.88;;;;;;;;;;5381999;26;20318;-56
2024/04/16 02:33:42;;;;;;;1.80;0.60;;;;;;;;;;5382233;26;20004;-58
2024/04/16 02:36:08;;;;;;;3.45;1.17;;;;;;;;;;5382207;26;20011;-55
2024/04/16 02:38:34;;;;;;;4.75;0.85;;;;;;;;;;5382187;26;20000;-56
2024/04/16 02:41:00;;;;;;;1.65;0.60;;;;;;;;;;5382070;26;20381;-55
2024/04/16 02:43:26;;;;;;;1.92;0.85;;;;;;;;;;5381889;26;20318;-57
2024/04/16 02:45:51;;;;;;;1.42;0.70;;;;;;;;;;5385193;26;19997;-56
2024/04/16 02:48:17;;;;;;;2.42;0.90;;;;;;;;;;5385204;26;20006;-57
2024/04/16 02:50:46;;;;;;;3.55;0.47;;;;;;;;;;5385325;26;20012;-57
2024/04/16 02:53:12;;;;;;;1.95;0.65;;;;;;;;;;5385134;26;20043;-52
2024/04/16 02:55:38;;;;;;;6.50;1.05;;;;;;;;;;5385184;26;20008;-53
2024/04/16 02:58:04;;;;;;;2.05;0.55;;;;;;;;;;5385138;26;20000;-56
2024/04/16 03:00:30;;;;;;;1.58;0.90;;;;;;;;;;5385421;26;20007;-52
2024/04/16 03:02:56;;;;;;;3.78;0.75;;;;;;;;;;5385095;26;19997;-53
2024/04/16 03:05:22;;;;;;;2.88;1.00;;;;;;;;;;5384966;26;19992;-54
2024/04/16 03:07:49;;;;;;;5.72;0.80;;;;;;;;;;5385285;26;19996;-53
2024/04/16 03:10:16;;;;;;;1.15;0.45;;;;;;;;;;5385220;26;20000;-56
2024/04/16 03:12:45;;;;;;;1.65;0.60;;;;;;;;;;5385219;26;19992;-55
2024/04/16 03:15:11;;;;;;;5.57;0.90;;;;;;;;;;5385073;26;20000;-53
2024/04/16 03:17:37;;;;;;;4.05;0.80;;;;;;;;;;5384871;26;20003;-56
2024/04/16 03:20:04;;;;;;;1.65;0.50;;;;;;;;;;5385106;26;20311;-54
2024/04/16 03:22:30;;;;;;;2.80;0.90;;;;;;;;;;5385154;26;20368;-54
2024/04/16 03:24:56;;;;;;;4.75;1.00;;;;;;;;;;5384636;26;20006;-54
2024/04/16 03:27:22;;;;;;;2.33;0.60;;;;;;;;;;5385071;26;20036;-53
2024/04/16 03:29:48;;;;;;;2.22;0.98;;;;;;;;;;5385280;26;20001;-57
2024/04/16 03:32:14;;;;;;;2.38;0.85;;;;;;;;;;5384881;26;19992;-55
2024/04/16 03:34:39;;;;;;;5.53;1.23;;;;;;;;;;5384996;26;19992;-54
2024/04/16 03:37:05;;;;;;;2.13;0.55;;;;;;;;;;5384834;26;20318;-56
2024/04/16 03:39:31;;;;;;;4.22;0.45;;;;;;;;;;5384605;26;20342;-56
2024/04/16 03:41:57;;;;;;;3.85;0.85;;;;;;;;;;5384810;26;19992;-56
2024/04/16 03:44:23;;;;;;;1.83;0.88;;;;;;;;;;5384533;26;20460;-56
2024/04/16 03:46:49;;;;;;;1.40;0.60;;;;;;;;;;5384353;26;20000;-56
2024/04/16 03:49:15;;;;;;;2.92;0.57;;;;;;;;;;5384665;26;20019;-58
2024/04/16 03:51:41;;;;;;;1.48;0.63;;;;;;;;;;5384394;26;20327;-54
2024/04/16 03:54:07;;;;;;;1.30;0.50;;;;;;;;;;5384902;26;20460;-56
2024/04/16 03:56:33;;;;;;;1.75;0.47;;;;;;;;;;5383959;26;20307;-55
2024/04/16 04:01:46;;;;;;;2.72;0.60;;;;;;;;;;5382513;26;19992;-57
2024/04/16 04:04:12;;;;;;;2.13;0.85;;;;;;;;;;5383785;26;20004;-57
2024/04/16 04:06:38;;;;;;;4.05;1.00;;;;;;;;;;5383949;26;19996;-56
2024/04/16 04:09:04;;;;;;;1.20;0.70;;;;;;;;;;5384394;26;19992;-56
2024/04/16 04:11:30;;;;;;;3.20;0.80;;;;;;;;;;5384317;26;20000;-56
2024/04/16 04:13:56;;;;;;;0.70;0.40;;;;;;;;;;5384462;26;20090;-55
2024/04/16 04:16:22;;;;;;;3.67;0.40;;;;;;;;;;5384195;26;19996;-57
2024/04/16 04:18:48;;;;;;;1.88;0.75;;;;;;;;;;5384157;26;20065;-55
2024/04/16 04:21:14;;;;;;;0.85;0.45;;;;;;;;;;5384615;26;19996;-55
2024/04/16 04:23:40;;;;;;;1.63;0.73;;;;;;;;;;5383905;26;20310;-57
2024/04/16 04:26:06;;;;;;;0.90;0.43;;;;;;;;;;5383925;26;19996;-57
2024/04/16 04:28:32;;;;;;;1.35;0.68;;;;;;;;;;5384200;26;19992;-55
2024/04/16 04:31:12;;;;;;;1.17;0.50;;;;;;;;;;5383973;26;20000;-57
2024/04/16 04:33:38;;;;;;;;;;;;;;;;;;5385127;26;20280;-55
2024/04/16 04:36:04;;;;;;;1.08;0.50;;;;;;;;;;5383732;26;19947;-57
2024/04/16 04:38:30;;;;;;;1.55;0.82;;;;;;;;;;5383582;26;20456;-54
2024/04/16 04:40:56;;;;;;;1.63;0.68;;;;;;;;;;5383574;26;20003;-57
2024/04/16 04:43:22;;;;;;;3.22;0.80;;;;;;;;;;5383895;26;19992;-53
2024/04/16 04:45:48;;;;;;;1.00;0.68;;;;;;;;;;5383766;26;20066;-57
2024/04/16 04:48:14;;;;;;;2.60;0.73;;;;;;;;;;5383579;26;20350;-56
2024/04/16 04:50:40;;;;;;;1.30;0.57;;;;;;;;;;5383530;26;20295;-55
2024/04/16 04:53:06;;;;;;;1.55;0.77;;;;;;;;;;5383115;26;19996;-57
2024/04/16 04:55:32;;;;;;;0.68;0.45;;;;;;;;;;5383240;26;20056;-55
2024/04/16 04:57:58;;;;;;;3.28;0.75;;;;;;;;;;5383220;26;20004;-55
2024/04/16 05:00:24;;;;;;;1.35;0.57;;;;;;;;;;5381502;26;19996;-57
2024/04/16 05:02:50;;;;;;;4.18;0.60;;;;;;;;;;5382768;26;20326;-57
2024/04/16 05:05:16;;;;;;;4.00;0.88;;;;;;;;;;5382984;26;19992;-56
2024/04/16 05:07:42;;;;;;;4.05;0.52;;;;;;;;;;5381691;26;19996;-55
2024/04/16 05:10:08;;;;;;;2.03;0.90;;;;;;;;;;5383514;26;20038;-52
2024/04/16 05:12:34;;;;;;;1.02;0.57;;;;;;;;;;5383245;26;19988;-56
2024/04/16 05:15:00;;;;;;;1.63;0.80;;;;;;;;;;5383312;26;20003;-57
2024/04/16 05:17:26;;;;;;;2.10;0.95;;;;;;;;;;5383416;26;19996;-57
2024/04/16 05:19:53;;;;;;;6.78;1.38;;;;;;;;;;5383399;26;19992;-53
2024/04/16 05:22:19;;;;;;;8.77;0.90;;;;;;;;;;5384279;26;20062;-55
2024/04/16 05:24:45;;;;;;;10.93;1.13;;;;;;;;;;5383113;26;19988;-57
2024/04/16 05:27:11;;;;;;;1.75;0.70;;;;;;;;;;5383217;26;20007;-55
2024/04/16 05:29:37;;;;;;;1.92;0.65;;;;;;;;;;5383377;26;20000;-55
2024/04/16 05:32:09;;;;;;;1.33;0.65;;;;;;;;;;5382954;26;19996;-57
2024/04/16 05:34:35;;;;;;;4.75;1.73;;;;;;;;;;5382796;26;19996;-56
2024/04/16 05:37:01;;;;;;;1.45;0.63;;;;;;;;;;5382926;26;20007;-56
2024/04/16 05:39:27;;;;;;;1.65;0.70;;;;;;;;;;5383039;26;19992;-57
2024/04/16 05:41:53;;;;;;;2.78;1.08;;;;;;;;;;5382615;26;20069;-56
2024/04/16 05:44:19;;;;;;;1.45;0.82;;;;;;;;;;5382491;26;20004;-56
2024/04/16 05:46:45;;;;;;;2.35;1.42;;;;;;;;;;5382462;26;20000;-57
2024/04/16 05:49:11;;;;;;;3.22;1.15;;;;;;;;;;5382470;26;20000;-56
2024/04/16 05:51:37;;;;;;;6.68;1.25;;;;;;;;;;5382414;26;20000;-58
2024/04/16 05:54:06;;;;;;;1.98;0.70;;;;;;;;;;5382488;26;20007;-55
2024/04/16 05:56:32;;;;;;;2.92;0.77;;;;;;;;;;5382176;26;20027;-56
2024/04/16 05:58:58;;;;;;;1.88;0.93;;;;;;;;;;5382581;26;20007;-56
2024/04/16 06:01:24;;;;;;;3.13;1.20;;;;;;;;;;5382131;26;19992;-54
2024/04/16 06:03:50;;;;;;;4.28;1.45;;;;;;;;;;5380803;26;19999;-53
2024/04/16 06:06:16;;;;;;;3.35;1.23;;;;;;;;;;5382644;26;20003;-57
2024/04/16 06:08:42;;;;;;;2.53;1.15;;;;;;;;;;5382481;26;20308;-55
2024/04/16 06:11:09;;;;;;;1.73;0.93;;;;;;;;;;5382488;26;20009;-56
2024/04/16 06:13:35;;;;;;;2.05;0.85;;;;;;;;;;5382554;26;20503;-56
2024/04/16 06:16:01;;;;;;;4.45;1.33;;;;;;;;;;5382342;26;19992;-55
2024/04/16 06:18:28;;;;;;;2.47;1.38;;;;;;;;;;5383823;26;20094;-55
2024/04/16 06:20:54;;;;;;;3.97;1.38;;;;;;;;;;5385824;26;20039;-56
2024/04/16 06:23:22;;;;;;;6.45;1.42;;;;;;;;;;5385748;26;19996;-55
2024/04/16 06:25:48;;;;;;;7.88;1.33;;;;;;;;;;5385590;26;20006;-56
2024/04/16 06:28:14;;;;;;;2.38;1.10;;;;;;;;;;5385543;26;19996;-53
2024/04/16 06:30:39;;;;;;;1.50;0.52;;;;;;;;;;5385662;26;20000;-51
2024/04/16 06:33:05;;;;;;;10.70;2.28;;;;;;;;;;5385372;26;20007;-56
2024/04/16 06:35:31;;;;;;;5.53;1.48;;;;;;;;;;5385423;26;20004;-57
2024/04/16 06:37:57;;;;;;;3.72;1.17;;;;;;;;;;5385303;26;19998;-54
2024/04/16 06:40:23;;;;;;;7.90;1.50;;;;;;;;;;5385453;26;20003;-57
2024/04/16 06:42:54;;;;;;;6.10;1.45;;;;;;;;;;5385050;26;20362;-56
2024/04/16 06:45:20;;;;;;;3.53;0.88;;;;;;;;;;5384821;26;20039;-55
2024/04/16 06:47:46;;;;;;;4.65;1.17;;;;;;;;;;5384958;26;20011;-57
2024/04/16 06:50:12;;;;;;;6.97;1.73;;;;;;;;;;5385258;26;20000;-56
2024/04/16 06:52:37;;;;;;;3.97;1.02;;;;;;;;;;5385014;26;20007;-53
2024/04/16 06:55:04;;;;;;;5.63;1.23;;;;;;;;;;5384965;26;20070;-56
2024/04/16 06:57:30;;;;;;;2.45;1.05;;;;;;;;;;5385192;26;20462;-55
2024/04/16 06:59:57;;;;;;;4.15;1.50;;;;;;;;;;5384623;26;20003;-56
2024/04/16 07:02:23;;;;;;;2.10;0.82;;;;;;;;;;5384653;26;20086;-57
2024/04/16 07:04:49;;;;;;;2.33;0.55;;;;;;;;;;5385568;26;20008;-56
2024/04/16 07:07:15;;;;;;;4.07;1.33;;;;;;;;;;5385062;26;19992;-56
2024/04/16 07:09:43;;;;;;;5.63;1.40;;;;;;;;;;5385024;26;19996;-56
2024/04/16 07:12:09;;;;;;;1.55;0.70;;;;;;;;;;5385050;26;20000;-55
2024/04/16 07:14:35;;;;;;;1.95;1.02;;;;;;;;;;5385002;26;20003;-56
2024/04/16 07:17:00;;;;;;;7.30;1.08;;;;;;;;;;5384963;26;20317;-57
2024/04/16 07:19:26;;;;;;;3.88;1.70;;;;;;;;;;5384778;26;20318;-56
2024/04/16 07:21:52;;;;;;;1.58;0.82;;;;;;;;;;5385018;26;20389;-56
2024/04/16 07:24:18;;;;;;;4.32;1.38;;;;;;;;;;5385063;26;19996;-57
2024/04/16 07:26:44;;;;;;;7.53;1.55;;;;;;;;;;5385101;26;20061;-56
2024/04/16 07:29:10;;;;;;;4.80;0.93;;;;;;;;;;5384848;26;20313;-57
2024/04/16 07:31:36;;;;;;;5.20;1.35;;;;;;;;;;5384845;26;19998;-56
2024/04/16 07:34:02;;;;;;;3.80;1.45;;;;;;;;;;5384699;26;20007;-57
2024/04/16 07:36:28;;;;;;;6.80;1.33;;;;;;;;;;5384855;26;20418;-54
2024/04/16 07:38:54;;;;;;;1.45;0.50;;;;;;;;;;5384780;26;20012;-53
2024/04/16 07:41:20;;;;;;;5.18;1.65;;;;;;;;;;5384779;26;20007;-56
2024/04/16 07:43:46;;;;;;;3.47;1.52;;;;;;;;;;5384394;26;20016;-55
2024/04/16 07:46:12;;;;;;;2.28;0.98;;;;;;;;;;5384572;26;20015;-55
2024/04/16 07:48:37;;;;;;;4.72;1.00;;;;;;;;;;5384322;26;19996;-57
2024/04/16 07:51:04;;;;;;;3.83;0.60;;;;;;;;;;5384311;26;19992;-56
2024/04/16 07:53:32;;;;;;;1.90;0.93;;;;;;;;;;5384212;26;19996;-57
2024/04/16 07:55:58;;;;;;;3.22;1.25;;;;;;;;;;5384423;26;20008;-55
2024/04/16 07:58:24;;;;;;;4.13;1.17;;;;;;;;;;5384248;26;20004;-57
2024/04/16 08:00:50;;;;;;;2.38;0.70;;;;;;;;;;5384580;26;20384;-56
2024/04/16 08:03:16;;;;;;;1.65;0.68;;;;;;;;;;5384121;26;20504;-55
2024/04/16 08:05:42;;;;;;;2.42;0.75;;;;;;;;;;5384418;26;20004;-56
2024/04/16 08:08:08;;;;;;;0.90;0.45;;;;;;;;;;5384491;26;20062;-54
2024/04/16 08:10:33;;;;;;;2.55;0.82;;;;;;;;;;5384593;26;19997;-57
2024/04/16 08:12:59;;;;;;;1.92;0.65;;;;;;;;;;5384704;26;20000;-57
2024/04/16 08:15:25;;;;;;;1.58;0.68;;;;;;;;;;5384539;26;20027;-57
2024/04/16 08:17:51;;;;;;;4.32;0.80;;;;;;;;;;5384287;26;19992;-57
2024/04/16 08:20:17;;;;;;;3.60;1.13;;;;;;;;;;5384466;26;20001;-57
2024/04/16 08:22:43;;;;;;;1.60;0.80;;;;;;;;;;5384352;26;20003;-54
2024/04/16 08:25:09;;;;;;;2.50;0.60;;;;;;;;;;5384276;26;20024;-55
2024/04/16 08:27:35;;;;;;;4.75;1.00;;;;;;;;;;5383884;26;19996;-53
2024/04/16 08:30:01;;;;;;;3.65;0.60;;;;;;;;;;5383832;26;20496;-57
2024/04/16 08:32:27;;;;;;;0.82;0.35;;;;;;;;;;5383815;26;20470;-55
2024/04/16 08:34:53;;;;;;;1.17;0.43;;;;;;;;;;5383941;26;20007;-56
2024/04/16 08:37:19;;;;;;;2.85;1.05;;;;;;;;;;5384226;26;20001;-55
2024/04/16 08:39:45;;;;;;;5.28;0.68;;;;;;;;;;5383452;26;20006;-56
2024/04/16 08:42:12;;;;;;;1.63;0.73;;;;;;;;;;5382006;26;20317;-57
2024/04/16 08:44:38;;;;;;;3.22;0.50;;;;;;;;;;5383664;26;20204;-56
2024/04/16 08:47:05;;;;;;;2.53;0.90;;;;;;;;;;5383303;26;20000;-58
2024/04/16 08:49:31;;;;;;;2.40;0.88;;;;;;;;;;5383470;26;20007;-56
2024/04/16 08:51:57;;;;;;;3.22;0.57;;;;;;;;;;5383245;26;20007;-56
2024/04/16 08:54:24;;;;;;;0.93;0.47;;;;;;;;;;5383329;26;20314;-56
2024/04/16 08:56:50;;;;;;;2.92;0.60;;;;;;;;;;5383503;26;19997;-56
2024/04/16 08:59:16;;;;;;;1.70;0.68;;;;;;;;;;5383299;26;19996;-56
2024/04/16 09:01:45;;;;;;;2.60;0.60;;;;;;;;;;5383107;26;20000;-57
2024/04/16 09:04:12;;;;;;;2.00;0.70;;;;;;;;;;5383488;26;20000;-57
2024/04/16 09:06:39;;;;;;;1.08;0.52;;;;;;;;;;5383238;26;19996;-56
2024/04/16 09:09:05;;;;;;;2.28;0.80;;;;;;;;;;5383193;26;20343;-55
2024/04/16 09:11:31;;;;;;;2.17;0.88;;;;;;;;;;5383131;26;19996;-56
2024/04/16 09:13:57;;;;;;;3.05;0.80;;;;;;;;;;5383041;26;20311;-55
2024/04/16 09:16:23;;;;;;;3.70;0.40;;;;;;;;;;5383241;26;20003;-54
2024/04/16 09:18:49;;;;;;;1.20;0.30;;;;;;;;;;5383136;26;20036;-56
2024/04/16 09:21:15;;;;;;;0.93;0.43;;;;;;;;;;5383280;26;20011;-55
2024/04/16 09:23:53;;;;;;;1.10;0.38;;;;;;;;;;5382993;26;20000;-57
2024/04/16 09:26:19;;;;;;;1.55;0.55;;;;;;;;;;5383198;26;20000;-56
2024/04/16 09:28:49;;;;;;;4.30;0.50;;;;;;;;;;5383132;26;20318;-57
2024/04/16 09:31:18;;;;;;;1.23;0.60;;;;;;;;;;5383302;26;20008;-55
2024/04/16 09:33:44;;;;;;;2.10;0.65;;;;;;;;;;5383013;26;20465;-56
2024/04/16 09:36:14;;;;;;;1.17;0.40;;;;;;;;;;5382941;26;20032;-55
2024/04/16 09:38:40;;;;;;;2.78;0.98;;;;;;;;;;5383459;26;20075;-53
2024/04/16 09:41:06;;;;;;;2.67;0.93;;;;;;;;;;5383120;26;19992;-56
2024/04/16 09:43:33;;;;;;;1.30;0.45;;;;;;;;;;5382793;26;19996;-56
2024/04/16 09:45:59;;;;;;;2.70;0.57;;;;;;;;;;5382789;26;19996;-53
2024/04/16 09:48:28;;;;;;;3.80;0.45;;;;;;;;;;5382592;26;20032;-52
2024/04/16 09:50:54;;;;;;;0.98;0.32;;;;;;;;;;5382722;26;20008;-57
2024/04/16 09:53:20;;;;;;;3.38;0.90;;;;;;;;;;5381949;26;20011;-58
2024/04/16 09:55:48;;;;;;;0.82;0.40;;;;;;;;;;5382771;26;19996;-57
2024/04/16 09:58:16;;;;;;;3.58;1.20;;;;;;;;;;5382631;26;19992;-55
2024/04/16 10:00:42;;;;;;;2.60;0.68;;;;;;;;;;5382534;26;20005;-56
2024/04/16 10:03:08;;;;;;;2.65;0.73;;;;;;;;;;5382746;26;20074;-56
2024/04/16 10:05:34;;;;;;;1.15;0.30;;;;;;;;;;5382367;26;19992;-56
2024/04/16 10:08:00;;;;;;;2.33;0.80;;;;;;;;;;5382365;26;20437;-57
2024/04/16 10:10:26;;;;;;;1.17;0.20;;;;;;;;;;5382391;26;20322;-55
2024/04/16 10:12:52;;;;;;;1.27;0.32;;;;;;;;;;5382315;26;19996;-57
2024/04/16 10:15:18;;;;;;;1.60;0.70;;;;;;;;;;5382663;26;20007;-56
2024/04/16 10:17:51;;;;;;;0.77;0.25;;;;;;;;;;5382187;26;20006;-55
2024/04/16 10:20:17;;;;;;;1.20;0.45;;;;;;;;;;5382538;26;20006;-56
2024/04/16 10:22:50;;;;;;;4.25;0.50;;;;;;;;;;5382377;26;19996;-56
2024/04/16 10:25:16;;;;;;;2.75;0.75;;;;;;;;;;5382537;26;19992;-58
2024/04/16 10:27:42;;;;;;;0.30;0.10;;;;;;;;;;5382072;26;20011;-57
2024/04/16 10:30:11;;;;;;;5.80;0.65;;;;;;;;;;5382111;26;19996;-57
2024/04/16 10:32:43;;;;;;;0.77;0.35;;;;;;;;;;5381967;26;19992;-56
2024/04/16 10:35:09;;;;;;;0.52;0.20;;;;;;;;;;5382032;26;20070;-57
2024/04/16 10:37:35;;;;;;;0.63;0.40;;;;;;;;;;5382178;26;20331;-56
2024/04/16 10:40:01;;;;;;;0.40;0.20;;;;;;;;;;5381904;26;19996;-55
2024/04/16 10:42:30;;;;;;;1.35;0.50;;;;;;;;;;5382160;26;20011;-57
2024/04/16 10:45:00;;;;;;;5.82;0.85;;;;;;;;;;5381819;26;20430;-57
2024/04/16 10:47:26;;;;;;;0.80;0.32;;;;;;;;;;5381675;26;20002;-57
2024/04/16 10:49:53;;;;;;;1.42;0.45;;;;;;;;;;5381539;26;20000;-56
2024/04/16 10:52:20;;;;;;;3.10;0.60;;;;;;;;;;5381553;26;20023;-57
2024/04/16 10:54:50;;;;;;;1.70;0.43;;;;;;;;;;5381907;26;19996;-57
2024/04/16 10:57:17;;;;;;;2.15;0.57;;;;;;;;;;5381729;26;19992;-55
2024/04/16 10:59:44;;;;;;;2.40;0.63;;;;;;;;;;5381440;26;20004;-57
2024/04/16 11:02:10;;;;;;;1.05;0.50;;;;;;;;;;5381381;26;20011;-57
2024/04/16 11:04:38;;;;;;;0.68;0.30;;;;;;;;;;5381854;26;20093;-57
2024/04/16 11:07:04;;;;;;;1.38;0.73;;;;;;;;;;5385146;26;20012;-57
2024/04/16 11:09:30;;;;;;;0.88;0.28;;;;;;;;;;5385548;26;20011;-57
2024/04/16 11:11:56;;;;;;;1.88;0.60;;;;;;;;;;5385362;26;20003;-57
2024/04/16 11:14:25;;;;;;;0.45;0.20;;;;;;;;;;5385133;26;20000;-57
2024/04/16 11:16:51;;;;;;;1.35;0.57;;;;;;;;;;5384803;26;20004;-55
2024/04/16 11:19:21;;;;;;;3.20;0.60;;;;;;;;;;5385452;26;20000;-58
2024/04/16 11:21:47;;;;;;;0.55;0.38;;;;;;;;;;5384864;26;19997;-55
2024/04/16 11:24:14;;;;;;;0.03;0.03;;;;;;;;;;5385168;26;19996;-55
2024/04/16 11:26:40;;;;;;;2.35;0.50;;;;;;;;;;5384554;26;20434;-58
2024/04/16 11:29:06;;;;;;;0.10;0.10;;;;;;;;;;5384413;26;20000;-57
2024/04/16 11:31:32;;;;;;;0.73;0.22;;;;;;;;;;5384630;26;19999;-56
2024/04/16 11:33:58;;;;;;;0.43;0.17;;;;;;;;;;5384533;26;20011;-57
2024/04/16 11:36:24;;;;;;;0.52;0.28;;;;;;;;;;5384637;26;20000;-55
2024/04/16 11:38:51;;;;;;;0.55;0.30;;;;;;;;;;5384537;26;20011;-55
2024/04/16 11:41:18;;;;;;;0.73;0.35;;;;;;;;;;5385509;26;20061;-54
2024/04/16 11:43:45;;;;;;;0.45;0.13;;;;;;;;;;5384409;26;20000;-56
2024/04/16 11:46:12;;;;;;;1.75;0.25;;;;;;;;;;5384554;26;20002;-58
2024/04/16 11:48:38;;;;;;;1.23;0.25;;;;;;;;;;5384380;26;20011;-57
2024/04/16 11:51:04;;;;;;;3.17;0.47;;;;;;;;;;5384390;26;20001;-57
2024/04/16 11:53:30;;;;;;;0.05;0.00;;;;;;;;;;5384641;26;20020;-57
2024/04/16 11:55:56;;;;;;;1.25;0.43;;;;;;;;;;5384529;26;20434;-58
2024/04/16 11:58:22;;;;;;;0.85;0.30;;;;;;;;;;5384517;26;19996;-55
2024/04/16 12:00:48;;;;;;;0.77;0.40;;;;;;;;;;5384129;26;20041;-58
2024/04/16 12:03:14;;;;;;;0.93;0.43;;;;;;;;;;5384107;26;19996;-58
2024/04/16 12:05:40;;;;;;;1.50;0.28;;;;;;;;;;5384091;26;19996;-56
2024/04/16 12:08:06;;;;;;;1.23;0.63;;;;;;;;;;5384163;26;20000;-58
2024/04/16 12:10:33;;;;;;;0.45;0.32;;;;;;;;;;5384892;26;20007;-57
2024/04/16 12:12:59;;;;;;;0.90;0.20;;;;;;;;;;5384385;26;19996;-55
2024/04/16 12:15:26;;;;;;;3.58;0.45;;;;;;;;;;5384295;26;20003;-55
2024/04/16 12:17:52;;;;;;;1.25;0.50;;;;;;;;;;5384258;26;20062;-57
2024/04/16 12:20:18;;;;;;;3.17;0.28;;;;;;;;;;5384672;26;20000;-57
2024/04/16 12:22:44;;;;;;;0.73;0.20;;;;;;;;;;5384191;26;20466;-55
2024/04/16 12:25:10;;;;;;;2.08;0.50;;;;;;;;;;5384501;26;20011;-57
2024/04/16 12:27:36;;;;;;;0.45;0.20;;;;;;;;;;5384268;26;20008;-57
2024/04/16 12:30:02;;;;;;;1.27;0.40;;;;;;;;;;5384036;26;19996;-56
2024/04/16 12:32:28;;;;;;;1.55;0.50;;;;;;;;;;5382556;26;20425;-57
2024/04/16 12:34:54;;;;;;;0.60;0.38;;;;;;;;;;5382835;26;19996;-55
2024/04/16 12:37:20;;;;;;;0.28;0.10;;;;;;;;;;5384065;26;20011;-57
2024/04/16 12:39:45;;;;;;;1.65;0.63;;;;;;;;;;5383923;26;20000;-56
2024/04/16 12:42:11;;;;;;;0.43;0.10;;;;;;;;;;5384437;26;20000;-56
2024/04/16 12:44:37;;;;;;;1.25;0.40;;;;;;;;;;5384251;26;20024;-57
2024/04/16 12:47:04;;;;;;;0.73;0.47;;;;;;;;;;5383985;26;20007;-55
2024/04/16 12:49:30;;;;;;;0.30;0.20;;;;;;;;;;5383895;26;20071;-57
2024/04/16 12:51:56;;;;;;;1.60;0.60;;;;;;;;;;5383914;26;20008;-57
2024/04/16 12:54:22;;;;;;;0.70;0.20;;;;;;;;;;5384100;26;20318;-57
2024/04/16 12:56:49;;;;;;;1.02;0.30;;;;;;;;;;5383657;26;20002;-57
2024/04/16 12:59:18;;;;;;;0.75;0.20;;;;;;;;;;5384010;26;20004;-56
2024/04/16 13:01:44;;;;;;;0.40;0.20;;;;;;;;;;5383767;26;20019;-58
2024/04/16 13:04:10;;;;;;;5.35;0.65;;;;;;;;;;5383998;26;20383;-57
2024/04/16 13:06:36;;;;;;;0.15;0.00;;;;;;;;;;5383340;26;19992;-58
2024/04/16 13:09:02;;;;;;;1.35;0.38;;;;;;;;;;5383573;26;20061;-57
2024/04/16 13:11:28;;;;;;;1.27;0.22;;;;;;;;;;5383661;26;19992;-56
2024/04/16 13:13:58;;;;;;;1.40;0.40;;;;;;;;;;5383944;26;20003;-57
2024/04/16 13:16:24;;;;;;;2.05;0.40;;;;;;;;;;5383427;26;20016;-57
2024/04/16 13:18:50;;;;;;;1.40;0.60;;;;;;;;;;5383575;26;19996;-56
2024/04/16 13:21:16;;;;;;;0.68;0.30;;;;;;;;;;5383195;26;20070;-58
2024/04/16 13:23:42;;;;;;;0.40;0.17;;;;;;;;;;5383416;26;20008;-56
2024/04/16 13:26:08;;;;;;;1.38;0.38;;;;;;;;;;5383327;26;20058;-57
2024/04/16 13:28:36;;;;;;;0.88;0.25;;;;;;;;;;5381948;26;20329;-58
2024/04/16 13:31:02;;;;;;;1.33;0.47;;;;;;;;;;5383023;26;20062;-57
2024/04/16 13:33:29;;;;;;;0.65;0.22;;;;;;;;;;5383436;26;19992;-57
2024/04/16 13:35:55;;;;;;;0.77;0.28;;;;;;;;;;5382959;26;19992;-58
2024/04/16 13:38:22;;;;;;;1.38;0.30;;;;;;;;;;5382920;26;19999;-57
2024/04/16 13:40:48;;;;;;;1.20;0.30;;;;;;;;;;5383049;26;19992;-56
2024/04/16 13:43:17;;;;;;;0.85;0.20;;;;;;;;;;5383040;26;19996;-57
2024/04/16 13:45:43;;;;;;;0.43;0.20;;;;;;;;;;5382750;26;20003;-58
2024/04/16 13:48:10;;;;;;;0.82;0.43;;;;;;;;;;5382742;26;20000;-56
2024/04/16 13:50:40;;;;;;;0.63;0.20;;;;;;;;;;5382667;26;20028;-58
2024/04/16 13:53:07;;;;;;;0.80;0.30;;;;;;;;;;5382835;26;20326;-58
2024/04/16 13:55:33;;;;;;;1.73;0.40;;;;;;;;;;5382740;26;20020;-57
2024/04/16 13:57:59;;;;;;;1.52;0.40;;;;;;;;;;5382820;26;19993;-57
2024/04/16 14:00:26;;;;;;;0.68;0.28;;;;;;;;;;5383015;26;20333;-56
2024/04/16 14:02:52;;;;;;;0.52;0.20;;;;;;;;;;5382393;26;20000;-55
2024/04/16 14:05:18;;;;;;;1.60;0.50;;;;;;;;;;5382566;26;19996;-56
2024/04/16 14:07:44;;;;;;;1.30;0.60;;;;;;;;;;5382502;26;20007;-56
2024/04/16 14:10:10;;;;;;;1.20;0.47;;;;;;;;;;5382779;26;20078;-57
2024/04/16 14:12:36;;;;;;;0.60;0.20;;;;;;;;;;5382640;26;20023;-57
2024/04/16 14:15:02;;;;;;;1.30;0.40;;;;;;;;;;5382596;26;20011;-57
2024/04/16 14:17:28;;;;;;;0.82;0.28;;;;;;;;;;5382631;26;20066;-58
2024/04/16 14:19:55;;;;;;;0.43;0.20;;;;;;;;;;5380913;26;19996;-58
2024/04/16 14:22:21;;;;;;;0.77;0.30;;;;;;;;;;5382464;26;20314;-58
2024/04/16 14:24:47;;;;;;;0.50;0.20;;;;;;;;;;5382811;26;20003;-56
2024/04/16 14:27:13;;;;;;;0.50;0.20;;;;;;;;;;5382821;26;20067;-58
2024/04/16 14:29:39;;;;;;;4.63;0.60;;;;;;;;;;5382738;26;19996;-58
2024/04/16 14:32:05;;;;;;;0.70;0.32;;;;;;;;;;5382558;26;20008;-56
2024/04/16 14:34:31;;;;;;;0.93;0.22;;;;;;;;;;5382600;26;20008;-57
2024/04/16 14:37:00;;;;;;;0.88;0.35;;;;;;;;;;5382251;26;19996;-54
2024/04/16 14:39:26;;;;;;;0.68;0.32;;;;;;;;;;5382402;26;20462;-57